sensor_id;sensor_type;location;lat;lon;timestamp;temperature;humidity
14755;DHT22;7469;50.906;6.952;2024-01-06T00:01:17;7.70;99.90
14755;DHT22;7469;50.906;6.952;2024-01-06T00:03:45;7.70;99.90
14755;DHT22;7469;50.906;6.952;2024-01-06T00:06:14;7.70;99.90
14755;DHT22;7469;50.906;6.952;2024-01-06T00:08:42;7.70;99.90
14755;DHT22;7469;50.906;6.952;2024-01-06T00:11:13;7.60;99.90
14755;DHT22;7469;50.906;6.952;2024-01-06T00:13:41;7.70;99.90
14755;DHT22;7469;50.906;6.952;2024-01-06T00:16:09;7.70;99.90
14755;DHT22;7469;50.906;6.952;2024-01-06T00:18:37;7.70;99.90
14755;DHT22;7469;50.906;6.952;2024-01-06T00:21:05;7.70;99.90
14755;DHT22;7469;50.906;6.952;2024-01-06T00:23:33;7.70;99.90
14755;DHT22;7469;50.906;6.952;2024-01-06T00:26:01;7.70;99.90
14755;DHT22;7469;50.906;6.952;2024-01-06T00:28:30;7.70;99.90
14755;DHT22;7469;50.906;6.952;2024-01-06T00:30:58;7.70;99.90
14755;DHT22;7469;50.906;6.952;2024-01-06T00:33:27;7.70;99.90
14755;DHT22;7469;50.906;6.952;2024-01-06T00:35:55;7.70;99.90
14755;DHT22;7469;50.906;6.952;2024-01-06T00:38:23;7.70;99.90
14755;DHT22;7469;50.906;6.952;2024-01-06T00:40:51;7.70;99.90
14755;DHT22;7469;50.906;6.952;2024-01-06T00:43:19;7.70;99.90
14755;DHT22;7469;50.906;6.952;2024-01-06T00:45:48;7.60;99.90
14755;DHT22;7469;50.906;6.952;2024-01-06T00:48:16;7.60;99.90
14755;DHT22;7469;50.906;6.952;2024-01-06T00:50:44;7.50;99.90
14755;DHT22;7469;50.906;6.952;2024-01-06T00:53:14;7.50;99.90
14755;DHT22;7469;50.906;6.952;2024-01-06T00:55:42;7.50;99.90
14755;DHT22;7469;50.906;6.952;2024-01-06T00:58:09;7.50;99.90
14755;DHT22;7469;50.906;6.952;2024-01-06T01:00:37;7.50;99.90
14755;DHT22;7469;50.906;6.952;2024-01-06T01:03:07;7.50;99.90
14755;DHT22;7469;50.906;6.952;2024-01-06T01:05:35;7.40;99.90
14755;DHT22;7469;50.906;6.952;2024-01-06T01:08:03;7.40;99.90
14755;DHT22;7469;50.906;6.952;2024-01-06T01:10:31;7.40;99.90
14755;DHT22;7469;50.906;6.952;2024-01-06T01:12:59;7.40;99.90
14755;DHT22;7469;50.906;6.952;2024-01-06T01:15:27;7.30;99.90
14755;DHT22;7469;50.906;6.952;2024-01-06T01:17:55;7.30;99.90
14755;DHT22;7469;50.906;6.952;2024-01-06T01:20:24;7.40;99.90
14755;DHT22;7469;50.906;6.952;2024-01-06T01:22:52;7.40;99.90
14755;DHT22;7469;50.906;6.952;2024-01-06T01:25:20;7.40;99.90
14755;DHT22;7469;50.906;6.952;2024-01-06T01:27:48;7.40;99.90
14755;DHT22;7469;50.906;6.952;2024-01-06T01:30:16;7.40;99.90
14755;DHT22;7469;50.906;6.952;2024-01-06T01:32:44;7.40;99.90
14755;DHT22;7469;50.906;6.952;2024-01-06T01:35:12;7.50;99.90
14755;DHT22;7469;50.906;6.952;2024-01-06T01:37:42;7.50;99.90
14755;DHT22;7469;50.906;6.952;2024-01-06T01:40:10;7.50;99.90
14755;DHT22;7469;50.906;6.952;2024-01-06T01:42:38;7.60;99.90
14755;DHT22;7469;50.906;6.952;2024-01-06T01:45:07;7.60;99.90
14755;DHT22;7469;50.906;6.952;2024-01-06T01:47:38;7.50;99.90
14755;DHT22;7469;50.906;6.952;2024-01-06T01:50:08;7.60;99.90
14755;DHT22;7469;50.906;6.952;2024-01-06T01:52:36;7.60;99.90
14755;DHT22;7469;50.906;6.952;2024-01-06T01:55:06;7.60;99.90
14755;DHT22;7469;50.906;6.952;2024-01-06T01:57:34;7.60;99.90
14755;DHT22;7469;50.906;6.952;2024-01-06T02:00:03;7.70;99.90
14755;DHT22;7469;50.906;6.952;2024-01-06T02:02:31;7.60;99.90
14755;DHT22;7469;50.906;6.952;2024-01-06T02:04:59;7.60;99.90
14755;DHT22;7469;50.906;6.952;2024-01-06T02:07:27;7.60;99.90
14755;DHT22;7469;50.906;6.952;2024-01-06T02:09:57;7.50;99.90
14755;DHT22;7469;50.906;6.952;2024-01-06T02:12:27;7.50;99.90
14755;DHT22;7469;50.906;6.952;2024-01-06T02:14:55;7.50;99.90
14755;DHT22;7469;50.906;6.952;2024-01-06T02:17:23;7.50;99.90
14755;DHT22;7469;50.906;6.952;2024-01-06T02:19:52;7.40;99.90
14755;DHT22;7469;50.906;6.952;2024-01-06T02:22:21;7.40;99.90
14755;DHT22;7469;50.906;6.952;2024-01-06T02:24:49;7.40;99.90
14755;DHT22;7469;50.906;6.952;2024-01-06T02:27:17;7.40;99.90
14755;DHT22;7469;50.906;6.952;2024-01-06T02:29:45;7.40;99.90
14755;DHT22;7469;50.906;6.952;2024-01-06T02:32:13;7.40;99.90
14755;DHT22;7469;50.906;6.952;2024-01-06T02:34:41;7.40;99.90
14755;DHT22;7469;50.906;6.952;2024-01-06T02:37:09;7.40;99.90
14755;DHT22;7469;50.906;6.952;2024-01-06T02:39:39;7.40;99.90
14755;DHT22;7469;50.906;6.952;2024-01-06T02:42:07;7.50;99.90
14755;DHT22;7469;50.906;6.952;2024-01-06T02:44:35;7.50;99.90
14755;DHT22;7469;50.906;6.952;2024-01-06T02:47:03;7.50;99.90
14755;DHT22;7469;50.906;6.952;2024-01-06T02:49:31;7.50;99.90
14755;DHT22;7469;50.906;6.952;2024-01-06T02:51:59;7.60;99.90
14755;DHT22;7469;50.906;6.952;2024-01-06T02:54:27;7.60;99.90
14755;DHT22;7469;50.906;6.952;2024-01-06T02:56:57;7.50;99.90
14755;DHT22;7469;50.906;6.952;2024-01-06T02:59:25;7.40;99.90
14755;DHT22;7469;50.906;6.952;2024-01-06T03:01:52;7.40;99.90
14755;DHT22;7469;50.906;6.952;2024-01-06T03:04:20;7.40;99.90
14755;DHT22;7469;50.906;6.952;2024-01-06T03:06:49;7.30;99.90
14755;DHT22;7469;50.906;6.952;2024-01-06T03:09:20;7.40;99.90
14755;DHT22;7469;50.906;6.952;2024-01-06T03:11:48;7.40;99.90
14755;DHT22;7469;50.906;6.952;2024-01-06T03:14:17;7.40;99.90
14755;DHT22;7469;50.906;6.952;2024-01-06T03:16:45;7.40;99.90
14755;DHT22;7469;50.906;6.952;2024-01-06T03:19:13;7.40;99.90
14755;DHT22;7469;50.906;6.952;2024-01-06T03:21:41;7.40;99.90
14755;DHT22;7469;50.906;6.952;2024-01-06T03:24:09;7.40;99.90
14755;DHT22;7469;50.906;6.952;2024-01-06T03:26:37;7.40;99.90
14755;DHT22;7469;50.906;6.952;2024-01-06T03:29:05;7.40;99.90
14755;DHT22;7469;50.906;6.952;2024-01-06T03:31:34;7.40;99.90
14755;DHT22;7469;50.906;6.952;2024-01-06T03:34:02;7.40;99.90
14755;DHT22;7469;50.906;6.952;2024-01-06T03:36:31;7.40;99.90
14755;DHT22;7469;50.906;6.952;2024-01-06T03:38:59;7.40;99.90
14755;DHT22;7469;50.906;6.952;2024-01-06T03:41:26;7.40;99.90
14755;DHT22;7469;50.906;6.952;2024-01-06T03:43:55;7.40;99.90
14755;DHT22;7469;50.906;6.952;2024-01-06T03:46:23;7.40;99.90
14755;DHT22;7469;50.906;6.952;2024-01-06T03:48:52;7.50;99.90
14755;DHT22;7469;50.906;6.952;2024-01-06T03:51:20;7.50;99.90
14755;DHT22;7469;50.906;6.952;2024-01-06T03:53:48;7.50;99.90
14755;DHT22;7469;50.906;6.952;2024-01-06T03:56:16;7.50;99.90
14755;DHT22;7469;50.906;6.952;2024-01-06T03:58:45;7.50;99.90
14755;DHT22;7469;50.906;6.952;2024-01-06T04:01:13;7.60;99.90
14755;DHT22;7469;50.906;6.952;2024-01-06T04:03:41;7.60;99.90
14755;DHT22;7469;50.906;6.952;2024-01-06T04:06:10;7.60;99.90
14755;DHT22;7469;50.906;6.952;2024-01-06T04:08:39;7.60;99.90
14755;DHT22;7469;50.906;6.952;2024-01-06T04:11:08;7.60;99.90
14755;DHT22;7469;50.906;6.952;2024-01-06T04:13:36;7.60;99.90
14755;DHT22;7469;50.906;6.952;2024-01-06T04:16:04;7.60;99.90
14755;DHT22;7469;50.906;6.952;2024-01-06T04:18:32;7.60;99.90
14755;DHT22;7469;50.906;6.952;2024-01-06T04:21:00;7.60;99.90
14755;DHT22;7469;50.906;6.952;2024-01-06T04:23:30;7.60;99.90
14755;DHT22;7469;50.906;6.952;2024-01-06T04:25:57;7.60;99.90
14755;DHT22;7469;50.906;6.952;2024-01-06T04:28:25;7.60;99.90
14755;DHT22;7469;50.906;6.952;2024-01-06T04:30:54;7.60;99.90
14755;DHT22;7469;50.906;6.952;2024-01-06T04:33:22;7.50;99.90
14755;DHT22;7469;50.906;6.952;2024-01-06T04:35:50;7.40;99.90
14755;DHT22;7469;50.906;6.952;2024-01-06T04:38:18;7.40;99.90
14755;DHT22;7469;50.906;6.952;2024-01-06T04:40:47;7.40;99.90
14755;DHT22;7469;50.906;6.952;2024-01-06T04:43:15;7.50;99.90
14755;DHT22;7469;50.906;6.952;2024-01-06T04:45:44;7.50;99.90
14755;DHT22;7469;50.906;6.952;2024-01-06T04:48:11;7.50;99.90
14755;DHT22;7469;50.906;6.952;2024-01-06T04:50:40;7.60;99.90
14755;DHT22;7469;50.906;6.952;2024-01-06T04:53:08;7.60;99.90
14755;DHT22;7469;50.906;6.952;2024-01-06T04:55:36;7.60;99.90
14755;DHT22;7469;50.906;6.952;2024-01-06T04:58:05;7.60;99.90
14755;DHT22;7469;50.906;6.952;2024-01-06T05:00:33;7.60;99.90
14755;DHT22;7469;50.906;6.952;2024-01-06T05:03:03;7.70;99.90
14755;DHT22;7469;50.906;6.952;2024-01-06T05:05:31;7.70;99.90
14755;DHT22;7469;50.906;6.952;2024-01-06T05:07:59;7.70;99.90
14755;DHT22;7469;50.906;6.952;2024-01-06T05:10:28;7.70;99.90
14755;DHT22;7469;50.906;6.952;2024-01-06T05:12:55;7.60;99.90
14755;DHT22;7469;50.906;6.952;2024-01-06T05:15:25;7.60;99.90
14755;DHT22;7469;50.906;6.952;2024-01-06T05:17:53;7.60;99.90
14755;DHT22;7469;50.906;6.952;2024-01-06T05:20:21;7.60;99.90
14755;DHT22;7469;50.906;6.952;2024-01-06T05:22:49;7.60;99.90
14755;DHT22;7469;50.906;6.952;2024-01-06T05:25:17;7.60;99.90
14755;DHT22;7469;50.906;6.952;2024-01-06T05:27:45;7.60;99.90
14755;DHT22;7469;50.906;6.952;2024-01-06T05:30:14;7.70;99.90
14755;DHT22;7469;50.906;6.952;2024-01-06T05:32:43;7.60;99.90
14755;DHT22;7469;50.906;6.952;2024-01-06T05:35:11;7.60;99.90
14755;DHT22;7469;50.906;6.952;2024-01-06T05:37:40;7.60;99.90
14755;DHT22;7469;50.906;6.952;2024-01-06T05:40:09;7.60;99.90
14755;DHT22;7469;50.906;6.952;2024-01-06T05:42:38;7.60;99.90
14755;DHT22;7469;50.906;6.952;2024-01-06T05:45:06;7.60;99.90
14755;DHT22;7469;50.906;6.952;2024-01-06T05:47:37;7.50;99.90
14755;DHT22;7469;50.906;6.952;2024-01-06T05:50:08;7.50;99.90
14755;DHT22;7469;50.906;6.952;2024-01-06T05:52:37;7.40;99.90
14755;DHT22;7469;50.906;6.952;2024-01-06T05:55:05;7.30;99.90
14755;DHT22;7469;50.906;6.952;2024-01-06T05:57:33;7.20;99.90
14755;DHT22;7469;50.906;6.952;2024-01-06T06:00:01;7.20;99.90
14755;DHT22;7469;50.906;6.952;2024-01-06T06:02:30;7.10;99.90
14755;DHT22;7469;50.906;6.952;2024-01-06T06:04:58;7.10;99.90
14755;DHT22;7469;50.906;6.952;2024-01-06T06:07:27;7.00;99.90
14755;DHT22;7469;50.906;6.952;2024-01-06T06:09:55;7.00;99.90
14755;DHT22;7469;50.906;6.952;2024-01-06T06:12:23;7.00;99.90
14755;DHT22;7469;50.906;6.952;2024-01-06T06:14:51;7.00;99.90
14755;DHT22;7469;50.906;6.952;2024-01-06T06:17:19;6.90;99.90
14755;DHT22;7469;50.906;6.952;2024-01-06T06:19:47;6.90;99.90
14755;DHT22;7469;50.906;6.952;2024-01-06T06:22:15;6.80;99.90
14755;DHT22;7469;50.906;6.952;2024-01-06T06:24:46;6.80;99.90
14755;DHT22;7469;50.906;6.952;2024-01-06T06:27:14;6.80;99.90
14755;DHT22;7469;50.906;6.952;2024-01-06T06:29:42;6.70;99.90
14755;DHT22;7469;50.906;6.952;2024-01-06T06:32:10;6.70;99.90
14755;DHT22;7469;50.906;6.952;2024-01-06T06:34:38;6.70;99.90
14755;DHT22;7469;50.906;6.952;2024-01-06T06:37:06;6.70;99.90
14755;DHT22;7469;50.906;6.952;2024-01-06T06:39:34;6.60;99.90
14755;DHT22;7469;50.906;6.952;2024-01-06T06:42:04;6.60;99.90
14755;DHT22;7469;50.906;6.952;2024-01-06T06:44:32;6.60;99.90
14755;DHT22;7469;50.906;6.952;2024-01-06T06:47:00;6.60;99.90
14755;DHT22;7469;50.906;6.952;2024-01-06T06:49:28;6.60;99.90
14755;DHT22;7469;50.906;6.952;2024-01-06T06:51:56;6.60;99.90
14755;DHT22;7469;50.906;6.952;2024-01-06T06:54:24;6.60;99.90
14755;DHT22;7469;50.906;6.952;2024-01-06T06:56:52;6.60;99.90
14755;DHT22;7469;50.906;6.952;2024-01-06T06:59:21;6.60;99.90
14755;DHT22;7469;50.906;6.952;2024-01-06T07:01:49;6.60;99.90
14755;DHT22;7469;50.906;6.952;2024-01-06T07:04:17;6.60;99.90
14755;DHT22;7469;50.906;6.952;2024-01-06T07:06:45;6.60;99.90
14755;DHT22;7469;50.906;6.952;2024-01-06T07:09:13;6.60;99.90
14755;DHT22;7469;50.906;6.952;2024-01-06T07:11:41;6.60;99.90
14755;DHT22;7469;50.906;6.952;2024-01-06T07:14:09;6.60;99.90
14755;DHT22;7469;50.906;6.952;2024-01-06T07:16:38;6.60;99.90
14755;DHT22;7469;50.906;6.952;2024-01-06T07:19:06;6.60;99.90
14755;DHT22;7469;50.906;6.952;2024-01-06T07:21:34;6.60;99.90
14755;DHT22;7469;50.906;6.952;2024-01-06T07:24:04;6.60;99.90
14755;DHT22;7469;50.906;6.952;2024-01-06T07:26:32;6.60;99.90
14755;DHT22;7469;50.906;6.952;2024-01-06T07:29:00;6.60;99.90
14755;DHT22;7469;50.906;6.952;2024-01-06T07:31:28;6.60;99.90
14755;DHT22;7469;50.906;6.952;2024-01-06T07:33:57;6.60;99.90
14755;DHT22;7469;50.906;6.952;2024-01-06T07:36:25;6.60;99.90
14755;DHT22;7469;50.906;6.952;2024-01-06T07:38:53;6.50;99.90
14755;DHT22;7469;50.906;6.952;2024-01-06T07:41:22;6.50;99.90
14755;DHT22;7469;50.906;6.952;2024-01-06T07:43:49;6.50;99.90
14755;DHT22;7469;50.906;6.952;2024-01-06T07:46:18;6.50;99.90
14755;DHT22;7469;50.906;6.952;2024-01-06T07:48:46;6.50;99.90
14755;DHT22;7469;50.906;6.952;2024-01-06T07:51:16;6.50;99.90
14755;DHT22;7469;50.906;6.952;2024-01-06T07:53:44;6.50;99.90
14755;DHT22;7469;50.906;6.952;2024-01-06T07:56:12;6.50;99.90
14755;DHT22;7469;50.906;6.952;2024-01-06T07:58:40;6.50;99.90
14755;DHT22;7469;50.906;6.952;2024-01-06T08:01:08;6.50;99.90
14755;DHT22;7469;50.906;6.952;2024-01-06T08:03:36;6.50;99.90
14755;DHT22;7469;50.906;6.952;2024-01-06T08:06:04;6.50;99.90
14755;DHT22;7469;50.906;6.952;2024-01-06T08:08:34;6.50;99.90
14755;DHT22;7469;50.906;6.952;2024-01-06T08:11:02;6.50;99.90
14755;DHT22;7469;50.906;6.952;2024-01-06T08:13:30;6.50;99.90
14755;DHT22;7469;50.906;6.952;2024-01-06T08:15:58;6.50;99.90
14755;DHT22;7469;50.906;6.952;2024-01-06T08:18:27;6.50;99.90
14755;DHT22;7469;50.906;6.952;2024-01-06T08:20:55;6.50;99.90
14755;DHT22;7469;50.906;6.952;2024-01-06T08:23:23;6.50;99.90
14755;DHT22;7469;50.906;6.952;2024-01-06T08:25:52;6.50;99.90
14755;DHT22;7469;50.906;6.952;2024-01-06T08:28:20;6.50;99.90
14755;DHT22;7469;50.906;6.952;2024-01-06T08:30:49;6.50;99.90
14755;DHT22;7469;50.906;6.952;2024-01-06T08:33:18;6.50;99.90
14755;DHT22;7469;50.906;6.952;2024-01-06T08:35:46;6.50;99.90
14755;DHT22;7469;50.906;6.952;2024-01-06T08:38:15;6.50;99.90
14755;DHT22;7469;50.906;6.952;2024-01-06T08:40:43;6.50;99.90
14755;DHT22;7469;50.906;6.952;2024-01-06T08:43:16;6.50;99.90
14755;DHT22;7469;50.906;6.952;2024-01-06T08:45:44;6.50;99.90
14755;DHT22;7469;50.906;6.952;2024-01-06T08:48:12;6.40;99.90
14755;DHT22;7469;50.906;6.952;2024-01-06T08:50:42;6.50;99.90
14755;DHT22;7469;50.906;6.952;2024-01-06T08:53:12;6.40;99.90
14755;DHT22;7469;50.906;6.952;2024-01-06T08:55:40;6.40;99.90
14755;DHT22;7469;50.906;6.952;2024-01-06T08:58:12;6.50;99.90
14755;DHT22;7469;50.906;6.952;2024-01-06T09:00:41;6.50;99.90
14755;DHT22;7469;50.906;6.952;2024-01-06T09:03:09;6.40;99.90
14755;DHT22;7469;50.906;6.952;2024-01-06T09:05:39;6.40;99.90
14755;DHT22;7469;50.906;6.952;2024-01-06T09:08:07;6.40;99.90
14755;DHT22;7469;50.906;6.952;2024-01-06T09:10:35;6.50;99.90
14755;DHT22;7469;50.906;6.952;2024-01-06T09:13:03;6.50;99.90
14755;DHT22;7469;50.906;6.952;2024-01-06T09:15:31;6.50;99.90
14755;DHT22;7469;50.906;6.952;2024-01-06T09:18:00;6.50;99.90
14755;DHT22;7469;50.906;6.952;2024-01-06T09:20:29;6.50;99.90
14755;DHT22;7469;50.906;6.952;2024-01-06T09:22:57;6.60;99.90
14755;DHT22;7469;50.906;6.952;2024-01-06T09:25:25;6.60;99.90
14755;DHT22;7469;50.906;6.952;2024-01-06T09:27:53;6.60;99.90
14755;DHT22;7469;50.906;6.952;2024-01-06T09:30:22;6.60;99.90
14755;DHT22;7469;50.906;6.952;2024-01-06T09:32:50;6.60;99.90
14755;DHT22;7469;50.906;6.952;2024-01-06T09:35:19;6.60;99.90
14755;DHT22;7469;50.906;6.952;2024-01-06T09:37:47;6.50;99.90
14755;DHT22;7469;50.906;6.952;2024-01-06T09:40:20;6.50;99.90
14755;DHT22;7469;50.906;6.952;2024-01-06T09:42:49;6.50;99.90
14755;DHT22;7469;50.906;6.952;2024-01-06T09:45:18;6.50;99.90
14755;DHT22;7469;50.906;6.952;2024-01-06T09:47:49;6.50;99.90
14755;DHT22;7469;50.906;6.952;2024-01-06T09:50:19;6.50;99.90
14755;DHT22;7469;50.906;6.952;2024-01-06T09:52:49;6.50;99.90
14755;DHT22;7469;50.906;6.952;2024-01-06T09:55:23;6.50;99.90
14755;DHT22;7469;50.906;6.952;2024-01-06T09:57:53;6.40;99.90
14755;DHT22;7469;50.906;6.952;2024-01-06T10:00:21;6.40;99.90
14755;DHT22;7469;50.906;6.952;2024-01-06T10:02:50;6.50;99.90
14755;DHT22;7469;50.906;6.952;2024-01-06T10:05:19;6.40;99.90
14755;DHT22;7469;50.906;6.952;2024-01-06T10:07:48;6.40;99.90
14755;DHT22;7469;50.906;6.952;2024-01-06T10:10:16;6.40;99.90
14755;DHT22;7469;50.906;6.952;2024-01-06T10:12:43;6.40;99.90
14755;DHT22;7469;50.906;6.952;2024-01-06T10:15:13;6.40;99.90
14755;DHT22;7469;50.906;6.952;2024-01-06T10:17:41;6.40;99.90
14755;DHT22;7469;50.906;6.952;2024-01-06T10:20:12;6.30;99.90
14755;DHT22;7469;50.906;6.952;2024-01-06T10:22:42;6.40;99.90
14755;DHT22;7469;50.906;6.952;2024-01-06T10:25:12;6.40;99.90
14755;DHT22;7469;50.906;6.952;2024-01-06T10:27:41;6.40;99.90
14755;DHT22;7469;50.906;6.952;2024-01-06T10:30:10;6.40;99.90
14755;DHT22;7469;50.906;6.952;2024-01-06T10:32:39;6.40;99.90
14755;DHT22;7469;50.906;6.952;2024-01-06T10:35:07;6.40;99.90
14755;DHT22;7469;50.906;6.952;2024-01-06T10:37:36;6.30;99.90
14755;DHT22;7469;50.906;6.952;2024-01-06T10:40:08;6.30;99.90
14755;DHT22;7469;50.906;6.952;2024-01-06T10:42:37;6.30;99.90
14755;DHT22;7469;50.906;6.952;2024-01-06T10:45:07;6.40;99.90
14755;DHT22;7469;50.906;6.952;2024-01-06T10:47:36;6.40;99.90
14755;DHT22;7469;50.906;6.952;2024-01-06T10:50:05;6.40;99.90
14755;DHT22;7469;50.906;6.952;2024-01-06T10:52:35;6.40;99.90
14755;DHT22;7469;50.906;6.952;2024-01-06T10:55:05;6.40;99.90
14755;DHT22;7469;50.906;6.952;2024-01-06T10:57:37;6.50;99.90
14755;DHT22;7469;50.906;6.952;2024-01-06T11:00:07;6.50;99.90
14755;DHT22;7469;50.906;6.952;2024-01-06T11:02:37;6.50;99.90
14755;DHT22;7469;50.906;6.952;2024-01-06T11:05:06;6.50;99.90
14755;DHT22;7469;50.906;6.952;2024-01-06T11:07:38;6.50;99.90
14755;DHT22;7469;50.906;6.952;2024-01-06T11:10:16;6.50;99.90
14755;DHT22;7469;50.906;6.952;2024-01-06T11:13:07;6.50;99.90
14755;DHT22;7469;50.906;6.952;2024-01-06T11:15:40;6.50;99.90
14755;DHT22;7469;50.906;6.952;2024-01-06T11:18:09;6.50;99.90
14755;DHT22;7469;50.906;6.952;2024-01-06T11:20:37;6.50;99.90
14755;DHT22;7469;50.906;6.952;2024-01-06T11:23:18;6.50;99.90
14755;DHT22;7469;50.906;6.952;2024-01-06T11:25:47;6.50;99.90
14755;DHT22;7469;50.906;6.952;2024-01-06T11:28:18;6.50;99.90
14755;DHT22;7469;50.906;6.952;2024-01-06T11:30:45;6.50;99.90
14755;DHT22;7469;50.906;6.952;2024-01-06T11:33:13;6.50;99.90
14755;DHT22;7469;50.906;6.952;2024-01-06T11:35:43;6.50;99.90
14755;DHT22;7469;50.906;6.952;2024-01-06T11:38:16;6.50;99.90
14755;DHT22;7469;50.906;6.952;2024-01-06T11:40:44;6.50;99.90
14755;DHT22;7469;50.906;6.952;2024-01-06T11:43:12;6.50;99.90
14755;DHT22;7469;50.906;6.952;2024-01-06T11:45:43;6.50;99.90
14755;DHT22;7469;50.906;6.952;2024-01-06T11:48:11;6.40;99.90
14755;DHT22;7469;50.906;6.952;2024-01-06T11:50:40;6.40;99.90
14755;DHT22;7469;50.906;6.952;2024-01-06T11:53:09;6.40;99.90
14755;DHT22;7469;50.906;6.952;2024-01-06T11:55:38;6.50;99.90
14755;DHT22;7469;50.906;6.952;2024-01-06T11:58:07;6.50;99.90
14755;DHT22;7469;50.906;6.952;2024-01-06T12:00:36;6.50;99.90
14755;DHT22;7469;50.906;6.952;2024-01-06T12:03:08;6.50;99.90
14755;DHT22;7469;50.906;6.952;2024-01-06T12:05:36;6.40;99.90
14755;DHT22;7469;50.906;6.952;2024-01-06T12:08:05;6.40;99.90
14755;DHT22;7469;50.906;6.952;2024-01-06T12:10:35;6.40;99.90
14755;DHT22;7469;50.906;6.952;2024-01-06T12:13:05;6.30;99.90
14755;DHT22;7469;50.906;6.952;2024-01-06T12:15:36;6.30;99.90
14755;DHT22;7469;50.906;6.952;2024-01-06T12:18:08;6.30;99.90
14755;DHT22;7469;50.906;6.952;2024-01-06T12:20:36;6.30;99.90
14755;DHT22;7469;50.906;6.952;2024-01-06T12:23:04;6.30;99.90
14755;DHT22;7469;50.906;6.952;2024-01-06T12:25:34;6.30;99.90
14755;DHT22;7469;50.906;6.952;2024-01-06T12:28:06;6.30;99.90
14755;DHT22;7469;50.906;6.952;2024-01-06T12:30:35;6.30;99.90
14755;DHT22;7469;50.906;6.952;2024-01-06T12:33:04;6.20;99.90
14755;DHT22;7469;50.906;6.952;2024-01-06T12:35:34;6.20;99.90
14755;DHT22;7469;50.906;6.952;2024-01-06T12:38:02;6.20;99.90
14755;DHT22;7469;50.906;6.952;2024-01-06T12:40:33;6.20;99.90
14755;DHT22;7469;50.906;6.952;2024-01-06T12:43:02;6.20;99.90
14755;DHT22;7469;50.906;6.952;2024-01-06T12:45:31;6.10;99.90
14755;DHT22;7469;50.906;6.952;2024-01-06T12:47:59;6.10;99.90
14755;DHT22;7469;50.906;6.952;2024-01-06T12:50:27;6.10;99.90
14755;DHT22;7469;50.906;6.952;2024-01-06T12:52:56;6.00;99.90
14755;DHT22;7469;50.906;6.952;2024-01-06T12:55:24;6.00;99.90
14755;DHT22;7469;50.906;6.952;2024-01-06T12:57:52;6.00;99.90
14755;DHT22;7469;50.906;6.952;2024-01-06T13:00:20;6.00;99.90
14755;DHT22;7469;50.906;6.952;2024-01-06T13:02:48;6.00;99.90
14755;DHT22;7469;50.906;6.952;2024-01-06T13:05:16;5.90;99.90
14755;DHT22;7469;50.906;6.952;2024-01-06T13:07:44;5.90;99.90
14755;DHT22;7469;50.906;6.952;2024-01-06T13:10:14;6.00;99.90
14755;DHT22;7469;50.906;6.952;2024-01-06T13:12:42;5.90;99.90
14755;DHT22;7469;50.906;6.952;2024-01-06T13:15:10;5.90;99.90
14755;DHT22;7469;50.906;6.952;2024-01-06T13:17:38;5.90;99.90
14755;DHT22;7469;50.906;6.952;2024-01-06T13:20:07;5.80;99.90
14755;DHT22;7469;50.906;6.952;2024-01-06T13:22:36;5.80;99.90
14755;DHT22;7469;50.906;6.952;2024-01-06T13:25:04;5.70;99.90
14755;DHT22;7469;50.906;6.952;2024-01-06T13:27:35;5.70;99.90
14755;DHT22;7469;50.906;6.952;2024-01-06T13:30:05;5.70;99.90
14755;DHT22;7469;50.906;6.952;2024-01-06T13:32:33;5.60;99.90
14755;DHT22;7469;50.906;6.952;2024-01-06T13:35:01;5.60;99.90
14755;DHT22;7469;50.906;6.952;2024-01-06T13:37:32;5.60;99.90
14755;DHT22;7469;50.906;6.952;2024-01-06T13:40:00;5.60;99.90
14755;DHT22;7469;50.906;6.952;2024-01-06T13:42:28;5.50;99.90
14755;DHT22;7469;50.906;6.952;2024-01-06T13:44:57;5.50;99.90
14755;DHT22;7469;50.906;6.952;2024-01-06T13:47:27;5.50;99.90
14755;DHT22;7469;50.906;6.952;2024-01-06T13:49:55;5.50;99.90
14755;DHT22;7469;50.906;6.952;2024-01-06T13:52:24;5.50;99.90
14755;DHT22;7469;50.906;6.952;2024-01-06T13:54:53;5.50;99.90
14755;DHT22;7469;50.906;6.952;2024-01-06T13:57:21;5.50;99.90
14755;DHT22;7469;50.906;6.952;2024-01-06T13:59:49;5.40;99.90
14755;DHT22;7469;50.906;6.952;2024-01-06T14:02:18;5.40;99.90
14755;DHT22;7469;50.906;6.952;2024-01-06T14:04:46;5.40;99.90
14755;DHT22;7469;50.906;6.952;2024-01-06T14:07:14;5.40;99.90
14755;DHT22;7469;50.906;6.952;2024-01-06T14:09:45;5.40;99.90
14755;DHT22;7469;50.906;6.952;2024-01-06T14:12:13;5.40;99.90
14755;DHT22;7469;50.906;6.952;2024-01-06T14:14:41;5.40;99.90
14755;DHT22;7469;50.906;6.952;2024-01-06T14:17:09;5.40;99.90
14755;DHT22;7469;50.906;6.952;2024-01-06T14:19:39;5.40;99.90
14755;DHT22;7469;50.906;6.952;2024-01-06T14:22:09;5.30;99.90
14755;DHT22;7469;50.906;6.952;2024-01-06T14:24:37;5.40;99.90
14755;DHT22;7469;50.906;6.952;2024-01-06T14:27:05;5.30;99.90
14755;DHT22;7469;50.906;6.952;2024-01-06T14:29:33;5.30;99.90
14755;DHT22;7469;50.906;6.952;2024-01-06T14:32:01;5.30;99.90
14755;DHT22;7469;50.906;6.952;2024-01-06T14:34:29;5.30;99.90
14755;DHT22;7469;50.906;6.952;2024-01-06T14:36:59;5.30;99.90
14755;DHT22;7469;50.906;6.952;2024-01-06T14:39:27;5.20;99.90
14755;DHT22;7469;50.906;6.952;2024-01-06T14:41:55;5.20;99.90
14755;DHT22;7469;50.906;6.952;2024-01-06T14:44:23;5.20;99.90
14755;DHT22;7469;50.906;6.952;2024-01-06T14:46:57;5.20;99.90
14755;DHT22;7469;50.906;6.952;2024-01-06T14:49:25;5.20;99.90
14755;DHT22;7469;50.906;6.952;2024-01-06T14:51:53;5.20;99.90
14755;DHT22;7469;50.906;6.952;2024-01-06T14:54:23;5.20;99.90
14755;DHT22;7469;50.906;6.952;2024-01-06T14:56:51;5.20;99.90
14755;DHT22;7469;50.906;6.952;2024-01-06T14:59:20;5.10;99.90
14755;DHT22;7469;50.906;6.952;2024-01-06T15:01:48;5.10;99.90
14755;DHT22;7469;50.906;6.952;2024-01-06T15:04:16;5.10;99.90
14755;DHT22;7469;50.906;6.952;2024-01-06T15:06:45;5.10;99.90
14755;DHT22;7469;50.906;6.952;2024-01-06T15:09:13;5.10;99.90
14755;DHT22;7469;50.906;6.952;2024-01-06T15:11:43;5.10;99.90
14755;DHT22;7469;50.906;6.952;2024-01-06T15:14:10;5.10;99.90
14755;DHT22;7469;50.906;6.952;2024-01-06T15:16:39;5.10;99.90
14755;DHT22;7469;50.906;6.952;2024-01-06T15:19:07;5.10;99.90
14755;DHT22;7469;50.906;6.952;2024-01-06T15:21:35;5.10;99.90
14755;DHT22;7469;50.906;6.952;2024-01-06T15:24:04;5.10;99.90
14755;DHT22;7469;50.906;6.952;2024-01-06T15:26:32;5.10;99.90
14755;DHT22;7469;50.906;6.952;2024-01-06T15:29:02;5.10;99.90
14755;DHT22;7469;50.906;6.952;2024-01-06T15:31:32;5.10;99.90
14755;DHT22;7469;50.906;6.952;2024-01-06T15:34:00;5.10;99.90
14755;DHT22;7469;50.906;6.952;2024-01-06T15:36:28;5.00;99.90
14755;DHT22;7469;50.906;6.952;2024-01-06T15:38:56;5.00;99.90
14755;DHT22;7469;50.906;6.952;2024-01-06T15:41:24;4.90;99.90
14755;DHT22;7469;50.906;6.952;2024-01-06T15:43:52;4.90;99.90
14755;DHT22;7469;50.906;6.952;2024-01-06T15:46:21;4.90;99.90
14755;DHT22;7469;50.906;6.952;2024-01-06T15:48:49;4.90;99.90
14755;DHT22;7469;50.906;6.952;2024-01-06T15:51:17;4.90;99.90
14755;DHT22;7469;50.906;6.952;2024-01-06T15:53:45;4.90;99.90
14755;DHT22;7469;50.906;6.952;2024-01-06T15:56:13;4.90;99.90
14755;DHT22;7469;50.906;6.952;2024-01-06T15:58:41;4.90;99.90
14755;DHT22;7469;50.906;6.952;2024-01-06T16:01:09;4.80;99.90
14755;DHT22;7469;50.906;6.952;2024-01-06T16:03:39;4.80;99.90
14755;DHT22;7469;50.906;6.952;2024-01-06T16:06:07;4.80;99.90
14755;DHT22;7469;50.906;6.952;2024-01-06T16:08:36;4.80;99.90
14755;DHT22;7469;50.906;6.952;2024-01-06T16:11:04;4.80;99.90